Airfield :
LOGIN :

Register | Disclaimer

   EN    FR    IT 

 










Legend :    VFR   Marginal VFR   IFR   Intensive IFR   Very Intensive IFR
Visi :
Ceiling :
>= 8 km
>= 3000ft
5 to 8 km
1000 to 3000 ft
1500m to 5 km
500 to 1000 ft
800 to 1500m
200 to 500 ft
< 800m
< 200 ft
Symbols :   Thunderstorms  Fog  Heavy snow  Heavy precipitations  Wind > 20 kt
SIGMETs :     Misc.  Thunderstorms  Icing  Turbulence  Mountain Waves  Volcanic Ashes






- Airport Elevation : 468 ft
- IATA code : GRO


LEGE - Girona Costa Brava

CURRENT METAR :
  • 281830Z 20005KT 9999 FEW050 11/08 Q1016

EXPIRED METARs :
  • 281800Z 19005KT 9999 FEW050 12/08 Q1016
  • 281730Z 18006KT 9999 SCT050 13/08 Q1015
  • 281700Z 20006KT 9999 SCT050 14/08 Q1015
  • 281630Z 19006KT 9999 FEW040 14/08 Q1015
  • 281600Z 18007KT 150V210 9999 FEW040 14/08 Q1015

TAF TAF LEGE
Valid from the 28 at 18:00 until the 29 at 18:00 UTC


281700Z 2818/2918 18008KT 9999 FEW060 TX21/2912Z TN06/2906Z
BECMG 2818/2821 VRB04KT
BECMG 2909/2912 18010KT



MET'MAP, your aeronautical weather chart ! - Copyright ORBIFLY December 2007 - Disclaimer

ORBIFLY MET'MAP TEAM :

Programming & Development : Alexandra Zaïnal
Concept & original design : Baudouin d'Aumeries
Assistance for programming : Marc-Olivier Méhu
Technical & hardware support : Manuel Goepfert

Contact : metmap@orbifly.com




SOURCES & CREDITS :

   NOAA